»·PEaware :: N7VG KSAN-KTNP

N7VG :: KSAN-KTNP

FLIGHT INFORMATION

Flight Status: Arrived
Operator: Privately registered:
United States
More flights under this callsign
Pilot: John C. (9438)
Aircraft: PILATUS PC-12 EAGLE
(PC12)
More flights by this aircraft type
Origin: KSAN San Diego Intl-Lindbergh
United States
Destination: KTNP Twentynine Palms
United States
More flights between these airports :: More routes between these airports
Route: NORTH EAST
File this flight plan on PilotEdge
Remarks: Testing
Altitude:
(Current/Filed)
11,500ft
Speed:
(Current/Filed)
180kts
Departed: 26-Oct-19 12:09 PM
Arrived: 26-Oct-19 12:57 PM
Distance/Time
Traveled:
105nm/0:48
Distance/Time
To Go:
Arrived

Flight Plot

Page will automatically refresh every two minutes.

Flight plan parsing failed; only flown route is shown


Map Options




Map Legend


Flown Route
Filed Route
Departure Airport
Arrival Airport
Navaid (VOR, NDB)
Fix

Horizontal Profiles

Position Reports

Time Latitude Longitude Heading Altitude Ground
Speed
26-Oct-19 11:51 32.732588 -117.177330 194 21ft 0kts
26-Oct-19 11:52 32.732588 -117.177330 194 21ft 0kts
26-Oct-19 11:53 32.732588 -117.177330 193 21ft 0kts
26-Oct-19 11:54 32.732588 -117.177330 194 21ft 0kts
26-Oct-19 11:55 32.732588 -117.177330 194 21ft 0kts
26-Oct-19 11:56 32.732588 -117.177330 194 21ft 0kts
26-Oct-19 11:57 32.732588 -117.177330 193 21ft 0kts
26-Oct-19 11:58 32.732588 -117.177330 194 21ft 0kts
26-Oct-19 11:59 32.732588 -117.177330 194 21ft 0kts
26-Oct-19 12:00 32.732588 -117.177330 194 21ft 0kts
26-Oct-19 12:01 32.732588 -117.177330 194 21ft 0kts
26-Oct-19 12:02 32.732447 -117.177285 136 21ft 4kts
26-Oct-19 12:03 32.732136 -117.176541 115 21ft 0kts
26-Oct-19 12:04 32.732136 -117.176541 115 21ft 0kts
26-Oct-19 12:05 32.732136 -117.176541 115 21ft 0kts
26-Oct-19 12:06 32.730950 -117.175376 153 21ft 0kts
26-Oct-19 12:07 32.730434 -117.175295 204 21ft 14kts
26-Oct-19 12:08 32.735833 -117.200794 272 740ft 131kts
26-Oct-19 12:09 32.711258 -117.205527 127 2777ft 151kts
26-Oct-19 12:10 32.685082 -117.160951 126 4051ft 181kts
26-Oct-19 12:11 32.655914 -117.110521 126 5070ft 185kts
26-Oct-19 12:12 32.626866 -117.060406 126 6082ft 184kts
26-Oct-19 12:13 32.602165 -117.007959 102 7045ft 184kts
26-Oct-19 12:14 32.592803 -116.948226 100 7974ft 185kts
26-Oct-19 12:15 32.583525 -116.888368 101 8871ft 184kts
26-Oct-19 12:16 32.575863 -116.828588 83 9729ft 184kts
26-Oct-19 12:17 32.585318 -116.768869 71 10556ft 184kts
26-Oct-19 12:18 32.599472 -116.710449 71 11212ft 192kts
26-Oct-19 12:19 32.614950 -116.645725 71 11218ft 210kts
26-Oct-19 12:20 32.631377 -116.577801 69 11217ft 217kts
26-Oct-19 12:21 32.656857 -116.512848 61 11217ft 217kts
26-Oct-19 12:22 32.689902 -116.453723 51 11217ft 215kts
26-Oct-19 12:23 32.726073 -116.397338 41 11217ft 213kts
26-Oct-19 12:24 32.770858 -116.351744 31 11217ft 211kts
26-Oct-19 12:25 32.821943 -116.318746 21 11214ft 209kts
26-Oct-19 12:26 32.874712 -116.289583 21 11215ft 209kts
26-Oct-19 12:27 32.925899 -116.260953 21 11434ft 205kts
26-Oct-19 12:28 32.978067 -116.231688 21 11434ft 208kts
26-Oct-19 12:29 33.030531 -116.202291 21 11434ft 209kts
26-Oct-19 12:30 33.084268 -116.175828 16 11434ft 209kts
26-Oct-19 12:31 33.139399 -116.153204 11 11435ft 209kts
26-Oct-19 12:32 33.195685 -116.135073 11 11432ft 209kts
26-Oct-19 12:33 33.251946 -116.116955 11 11429ft 209kts
26-Oct-19 12:34 33.308266 -116.098793 11 11426ft 210kts
26-Oct-19 12:35 33.364557 -116.080602 11 11424ft 210kts
26-Oct-19 12:36 33.420796 -116.062090 11 11421ft 210kts
26-Oct-19 12:37 33.477225 -116.043744 11 11419ft 210kts
26-Oct-19 12:38 33.533611 -116.025460 11 11419ft 210kts
26-Oct-19 12:39 33.590264 -116.007080 11 11422ft 211kts
26-Oct-19 12:40 33.646889 -115.988642 11 11499ft 208kts
26-Oct-19 12:41 33.702855 -115.970083 11 11516ft 210kts
26-Oct-19 12:42 33.759160 -115.951398 12 11516ft 211kts
26-Oct-19 12:43 33.812966 -115.920918 26 11518ft 215kts
26-Oct-19 12:44 33.864382 -115.885989 26 10907ft 213kts
26-Oct-19 12:45 33.915954 -115.851284 26 9992ft 212kts
26-Oct-19 12:46 33.967882 -115.817880 26 9149ft 210kts
26-Oct-19 12:47 34.019972 -115.787350 18 8053ft 206kts
26-Oct-19 12:48 34.073132 -115.778516 357 7286ft 187kts
26-Oct-19 12:49 34.122523 -115.794444 341 6341ft 182kts
26-Oct-19 12:50 34.165286 -115.825446 321 4983ft 178kts
26-Oct-19 12:51 34.201048 -115.864692 309 3994ft 170kts
26-Oct-19 12:52 34.219187 -115.914446 276 3236ft 128kts
26-Oct-19 12:53 34.190226 -115.935828 196 3359ft 150kts
26-Oct-19 12:54 34.155008 -115.944962 190 2701ft 109kts
26-Oct-19 12:55 34.129113 -115.947990 175 1891ft 50kts
26-Oct-19 12:56 34.128175 -115.947367 3 1891ft 1kts
26-Oct-19 12:58 34.130190 -115.947352 359 1891ft 25kts
26-Oct-19 12:59 34.135206 -115.947076 84 1887ft 10kts
26-Oct-19 13:00 34.135490 -115.944780 355 1886ft 0kts
26-Oct-19 13:01 34.135490 -115.944780 355 1886ft 0kts
26-Oct-19 13:02 34.135490 -115.944780 355 1886ft 0kts
26-Oct-19 13:03 34.135490 -115.944780 355 1886ft 0kts

Navigation Log

Ident Type
Flight plan parsing failed, navigation log unavailable